sensor_id;sensor_type;location;lat;lon;timestamp;P1;durP1;ratioP1;P2;durP2;ratioP2
45728;SDS011;31439;53.512;10.206;2022-10-01T00:00:34;5.15;;;3.90;;
45728;SDS011;31439;53.512;10.206;2022-10-01T00:03:00;5.95;;;3.83;;
45728;SDS011;31439;53.512;10.206;2022-10-01T00:05:26;5.63;;;3.80;;
45728;SDS011;31439;53.512;10.206;2022-10-01T00:07:52;5.13;;;3.38;;
45728;SDS011;31439;53.512;10.206;2022-10-01T00:10:18;5.82;;;3.97;;
45728;SDS011;31439;53.512;10.206;2022-10-01T00:12:45;7.80;;;3.83;;
45728;SDS011;31439;53.512;10.206;2022-10-01T00:15:13;6.40;;;3.80;;
45728;SDS011;31439;53.512;10.206;2022-10-01T00:17:40;7.47;;;3.75;;
45728;SDS011;31439;53.512;10.206;2022-10-01T00:20:06;6.88;;;3.80;;
45728;SDS011;31439;53.512;10.206;2022-10-01T00:22:33;6.32;;;4.10;;
45728;SDS011;31439;53.512;10.206;2022-10-01T00:25:00;4.95;;;3.75;;
45728;SDS011;31439;53.512;10.206;2022-10-01T00:27:26;8.70;;;4.10;;
45728;SDS011;31439;53.512;10.206;2022-10-01T00:29:52;8.27;;;3.85;;
45728;SDS011;31439;53.512;10.206;2022-10-01T00:32:19;9.02;;;3.88;;
45728;SDS011;31439;53.512;10.206;2022-10-01T00:34:45;7.30;;;3.95;;
45728;SDS011;31439;53.512;10.206;2022-10-01T00:37:12;5.07;;;3.72;;
45728;SDS011;31439;53.512;10.206;2022-10-01T00:39:38;5.78;;;3.83;;
45728;SDS011;31439;53.512;10.206;2022-10-01T00:42:24;6.70;;;3.60;;
45728;SDS011;31439;53.512;10.206;2022-10-01T00:44:51;6.95;;;3.90;;
45728;SDS011;31439;53.512;10.206;2022-10-01T00:47:23;5.88;;;3.58;;
45728;SDS011;31439;53.512;10.206;2022-10-01T00:49:51;5.15;;;3.35;;
45728;SDS011;31439;53.512;10.206;2022-10-01T00:52:20;5.97;;;3.45;;
45728;SDS011;31439;53.512;10.206;2022-10-01T00:54:56;5.63;;;3.58;;
45728;SDS011;31439;53.512;10.206;2022-10-01T00:57:23;4.45;;;3.33;;
45728;SDS011;31439;53.512;10.206;2022-10-01T00:59:50;4.82;;;3.78;;
45728;SDS011;31439;53.512;10.206;2022-10-01T01:02:16;6.38;;;3.50;;
45728;SDS011;31439;53.512;10.206;2022-10-01T01:04:42;5.25;;;3.80;;
45728;SDS011;31439;53.512;10.206;2022-10-01T01:07:08;5.20;;;3.55;;
45728;SDS011;31439;53.512;10.206;2022-10-01T01:09:36;6.43;;;3.65;;
45728;SDS011;31439;53.512;10.206;2022-10-01T01:17:00;7.03;;;3.83;;
45728;SDS011;31439;53.512;10.206;2022-10-01T01:22:24;5.97;;;3.75;;
45728;SDS011;31439;53.512;10.206;2022-10-01T01:24:56;7.82;;;3.80;;
45728;SDS011;31439;53.512;10.206;2022-10-01T01:34:59;6.00;;;3.50;;
45728;SDS011;31439;53.512;10.206;2022-10-01T01:37:26;4.10;;;3.20;;
45728;SDS011;31439;53.512;10.206;2022-10-01T01:39:55;7.63;;;3.50;;
45728;SDS011;31439;53.512;10.206;2022-10-01T01:42:32;6.78;;;3.90;;
45728;SDS011;31439;53.512;10.206;2022-10-01T01:45:01;5.47;;;3.58;;
45728;SDS011;31439;53.512;10.206;2022-10-01T01:47:29;6.63;;;3.50;;
45728;SDS011;31439;53.512;10.206;2022-10-01T01:49:56;5.60;;;3.58;;
45728;SDS011;31439;53.512;10.206;2022-10-01T01:52:23;5.93;;;3.30;;
45728;SDS011;31439;53.512;10.206;2022-10-01T01:54:49;5.68;;;3.70;;
45728;SDS011;31439;53.512;10.206;2022-10-01T01:57:16;5.00;;;3.33;;
45728;SDS011;31439;53.512;10.206;2022-10-01T01:59:43;6.25;;;3.47;;
45728;SDS011;31439;53.512;10.206;2022-10-01T02:02:12;8.70;;;3.60;;
45728;SDS011;31439;53.512;10.206;2022-10-01T02:04:41;8.15;;;3.60;;
45728;SDS011;31439;53.512;10.206;2022-10-01T02:09:51;8.85;;;3.80;;
45728;SDS011;31439;53.512;10.206;2022-10-01T02:19:56;7.60;;;3.42;;
45728;SDS011;31439;53.512;10.206;2022-10-01T02:22:41;6.10;;;3.13;;
45728;SDS011;31439;53.512;10.206;2022-10-01T02:25:08;4.72;;;3.28;;
45728;SDS011;31439;53.512;10.206;2022-10-01T02:27:39;6.70;;;3.50;;
45728;SDS011;31439;53.512;10.206;2022-10-01T02:30:08;5.15;;;3.00;;
45728;SDS011;31439;53.512;10.206;2022-10-01T02:32:36;7.13;;;3.50;;
45728;SDS011;31439;53.512;10.206;2022-10-01T02:35:03;8.32;;;3.20;;
45728;SDS011;31439;53.512;10.206;2022-10-01T02:37:30;6.90;;;3.20;;
45728;SDS011;31439;53.512;10.206;2022-10-01T02:39:57;6.10;;;3.38;;
45728;SDS011;31439;53.512;10.206;2022-10-01T02:42:25;5.15;;;3.20;;
45728;SDS011;31439;53.512;10.206;2022-10-01T02:44:52;5.57;;;3.20;;
45728;SDS011;31439;53.512;10.206;2022-10-01T02:47:23;6.10;;;3.33;;
45728;SDS011;31439;53.512;10.206;2022-10-01T02:49:51;5.45;;;3.08;;
45728;SDS011;31439;53.512;10.206;2022-10-01T02:54:57;4.28;;;2.75;;
45728;SDS011;31439;53.512;10.206;2022-10-01T02:57:25;5.15;;;2.78;;
45728;SDS011;31439;53.512;10.206;2022-10-01T02:59:58;7.07;;;3.00;;
45728;SDS011;31439;53.512;10.206;2022-10-01T03:02:25;4.20;;;2.67;;
45728;SDS011;31439;53.512;10.206;2022-10-01T03:04:52;5.18;;;2.90;;
45728;SDS011;31439;53.512;10.206;2022-10-01T03:07:19;3.58;;;2.40;;
45728;SDS011;31439;53.512;10.206;2022-10-01T03:09:45;5.65;;;2.88;;
45728;SDS011;31439;53.512;10.206;2022-10-01T03:12:11;3.42;;;2.55;;
45728;SDS011;31439;53.512;10.206;2022-10-01T03:14:37;4.72;;;2.85;;
45728;SDS011;31439;53.512;10.206;2022-10-01T03:17:04;4.90;;;2.75;;
45728;SDS011;31439;53.512;10.206;2022-10-01T03:19:30;5.00;;;2.70;;
45728;SDS011;31439;53.512;10.206;2022-10-01T03:21:56;3.95;;;2.80;;
45728;SDS011;31439;53.512;10.206;2022-10-01T03:24:22;4.70;;;2.85;;
45728;SDS011;31439;53.512;10.206;2022-10-01T03:26:48;3.45;;;2.47;;
45728;SDS011;31439;53.512;10.206;2022-10-01T03:29:15;5.88;;;2.80;;
45728;SDS011;31439;53.512;10.206;2022-10-01T03:31:41;4.82;;;2.58;;
45728;SDS011;31439;53.512;10.206;2022-10-01T03:34:07;5.38;;;2.95;;
45728;SDS011;31439;53.512;10.206;2022-10-01T03:36:33;6.00;;;2.70;;
45728;SDS011;31439;53.512;10.206;2022-10-01T03:38:59;4.10;;;2.63;;
45728;SDS011;31439;53.512;10.206;2022-10-01T03:41:25;5.00;;;2.90;;
45728;SDS011;31439;53.512;10.206;2022-10-01T03:43:51;5.75;;;2.80;;
45728;SDS011;31439;53.512;10.206;2022-10-01T03:46:17;3.72;;;2.80;;
45728;SDS011;31439;53.512;10.206;2022-10-01T03:48:43;4.68;;;2.85;;
45728;SDS011;31439;53.512;10.206;2022-10-01T03:51:09;6.15;;;2.85;;
45728;SDS011;31439;53.512;10.206;2022-10-01T03:53:35;5.40;;;2.63;;
45728;SDS011;31439;53.512;10.206;2022-10-01T03:56:01;4.15;;;2.35;;
45728;SDS011;31439;53.512;10.206;2022-10-01T03:58:28;5.20;;;2.90;;
45728;SDS011;31439;53.512;10.206;2022-10-01T04:00:54;5.35;;;2.50;;
45728;SDS011;31439;53.512;10.206;2022-10-01T04:03:21;6.20;;;2.65;;
45728;SDS011;31439;53.512;10.206;2022-10-01T04:05:47;5.60;;;2.85;;
45728;SDS011;31439;53.512;10.206;2022-10-01T04:08:14;5.75;;;2.60;;
45728;SDS011;31439;53.512;10.206;2022-10-01T04:10:40;3.90;;;2.40;;
45728;SDS011;31439;53.512;10.206;2022-10-01T04:13:06;6.32;;;2.60;;
45728;SDS011;31439;53.512;10.206;2022-10-01T04:15:32;7.57;;;2.90;;
45728;SDS011;31439;53.512;10.206;2022-10-01T04:17:58;4.45;;;2.60;;
45728;SDS011;31439;53.512;10.206;2022-10-01T04:20:25;4.97;;;2.55;;
45728;SDS011;31439;53.512;10.206;2022-10-01T04:22:51;4.38;;;2.50;;
45728;SDS011;31439;53.512;10.206;2022-10-01T04:25:17;5.35;;;2.67;;
45728;SDS011;31439;53.512;10.206;2022-10-01T04:27:52;5.18;;;2.60;;
45728;SDS011;31439;53.512;10.206;2022-10-01T04:30:19;5.15;;;2.90;;
45728;SDS011;31439;53.512;10.206;2022-10-01T04:32:45;5.18;;;2.78;;
45728;SDS011;31439;53.512;10.206;2022-10-01T04:35:11;4.85;;;2.65;;
45728;SDS011;31439;53.512;10.206;2022-10-01T04:37:37;5.32;;;2.90;;
45728;SDS011;31439;53.512;10.206;2022-10-01T04:40:04;5.45;;;3.00;;
45728;SDS011;31439;53.512;10.206;2022-10-01T04:42:30;4.40;;;2.90;;
45728;SDS011;31439;53.512;10.206;2022-10-01T04:44:56;4.45;;;2.40;;
45728;SDS011;31439;53.512;10.206;2022-10-01T04:47:22;5.45;;;2.80;;
45728;SDS011;31439;53.512;10.206;2022-10-01T04:49:48;4.80;;;2.70;;
45728;SDS011;31439;53.512;10.206;2022-10-01T04:52:14;4.55;;;2.92;;
45728;SDS011;31439;53.512;10.206;2022-10-01T04:54:40;5.72;;;3.20;;
45728;SDS011;31439;53.512;10.206;2022-10-01T04:57:06;5.82;;;3.20;;
45728;SDS011;31439;53.512;10.206;2022-10-01T04:59:32;4.95;;;3.15;;
45728;SDS011;31439;53.512;10.206;2022-10-01T05:01:58;5.47;;;2.92;;
45728;SDS011;31439;53.512;10.206;2022-10-01T05:04:24;6.40;;;2.90;;
45728;SDS011;31439;53.512;10.206;2022-10-01T05:06:51;4.25;;;3.00;;
45728;SDS011;31439;53.512;10.206;2022-10-01T05:09:17;6.05;;;3.17;;
45728;SDS011;31439;53.512;10.206;2022-10-01T05:11:43;5.18;;;2.85;;
45728;SDS011;31439;53.512;10.206;2022-10-01T05:14:10;6.80;;;2.90;;
45728;SDS011;31439;53.512;10.206;2022-10-01T05:16:36;5.40;;;2.80;;
45728;SDS011;31439;53.512;10.206;2022-10-01T05:19:02;4.88;;;2.60;;
45728;SDS011;31439;53.512;10.206;2022-10-01T05:21:28;5.88;;;3.20;;
45728;SDS011;31439;53.512;10.206;2022-10-01T05:23:54;5.00;;;3.10;;
45728;SDS011;31439;53.512;10.206;2022-10-01T05:26:20;5.63;;;3.30;;
45728;SDS011;31439;53.512;10.206;2022-10-01T05:28:47;5.22;;;3.17;;
45728;SDS011;31439;53.512;10.206;2022-10-01T05:31:13;5.00;;;3.15;;
45728;SDS011;31439;53.512;10.206;2022-10-01T05:33:39;4.38;;;2.97;;
45728;SDS011;31439;53.512;10.206;2022-10-01T05:36:06;4.68;;;3.00;;
45728;SDS011;31439;53.512;10.206;2022-10-01T05:38:32;5.65;;;3.42;;
45728;SDS011;31439;53.512;10.206;2022-10-01T05:41:01;4.72;;;3.20;;
45728;SDS011;31439;53.512;10.206;2022-10-01T05:43:27;6.57;;;3.67;;
45728;SDS011;31439;53.512;10.206;2022-10-01T05:45:54;5.30;;;3.45;;
45728;SDS011;31439;53.512;10.206;2022-10-01T05:48:20;7.63;;;3.67;;
45728;SDS011;31439;53.512;10.206;2022-10-01T05:50:46;4.45;;;3.33;;
45728;SDS011;31439;53.512;10.206;2022-10-01T05:53:13;7.75;;;3.78;;
45728;SDS011;31439;53.512;10.206;2022-10-01T05:55:40;7.00;;;3.50;;
45728;SDS011;31439;53.512;10.206;2022-10-01T05:58:07;7.68;;;4.93;;
45728;SDS011;31439;53.512;10.206;2022-10-01T06:00:34;7.03;;;4.43;;
45728;SDS011;31439;53.512;10.206;2022-10-01T06:03:01;6.13;;;3.85;;
45728;SDS011;31439;53.512;10.206;2022-10-01T06:05:28;5.85;;;3.72;;
45728;SDS011;31439;53.512;10.206;2022-10-01T06:07:54;5.93;;;3.60;;
45728;SDS011;31439;53.512;10.206;2022-10-01T06:10:20;6.25;;;3.72;;
45728;SDS011;31439;53.512;10.206;2022-10-01T06:12:47;5.78;;;3.75;;
45728;SDS011;31439;53.512;10.206;2022-10-01T06:15:13;6.35;;;3.60;;
45728;SDS011;31439;53.512;10.206;2022-10-01T06:17:39;9.50;;;4.20;;
45728;SDS011;31439;53.512;10.206;2022-10-01T06:20:18;6.70;;;4.53;;
45728;SDS011;31439;53.512;10.206;2022-10-01T06:22:50;6.13;;;4.00;;
45728;SDS011;31439;53.512;10.206;2022-10-01T06:25:17;5.75;;;3.90;;
45728;SDS011;31439;53.512;10.206;2022-10-01T06:27:43;5.00;;;3.45;;
45728;SDS011;31439;53.512;10.206;2022-10-01T06:30:09;6.00;;;3.83;;
45728;SDS011;31439;53.512;10.206;2022-10-01T06:32:35;8.95;;;3.80;;
45728;SDS011;31439;53.512;10.206;2022-10-01T06:35:01;6.72;;;3.80;;
45728;SDS011;31439;53.512;10.206;2022-10-01T06:37:27;5.45;;;3.72;;
45728;SDS011;31439;53.512;10.206;2022-10-01T06:39:53;7.93;;;3.60;;
45728;SDS011;31439;53.512;10.206;2022-10-01T06:42:19;6.35;;;3.55;;
45728;SDS011;31439;53.512;10.206;2022-10-01T06:44:46;5.70;;;3.72;;
45728;SDS011;31439;53.512;10.206;2022-10-01T06:47:12;6.32;;;3.72;;
45728;SDS011;31439;53.512;10.206;2022-10-01T06:49:38;6.60;;;3.80;;
45728;SDS011;31439;53.512;10.206;2022-10-01T06:52:04;5.10;;;3.50;;
45728;SDS011;31439;53.512;10.206;2022-10-01T06:54:49;7.30;;;4.18;;
45728;SDS011;31439;53.512;10.206;2022-10-01T06:57:15;5.88;;;3.70;;
45728;SDS011;31439;53.512;10.206;2022-10-01T06:59:41;6.72;;;3.75;;
45728;SDS011;31439;53.512;10.206;2022-10-01T07:02:09;5.13;;;3.42;;
45728;SDS011;31439;53.512;10.206;2022-10-01T07:04:35;4.85;;;3.65;;
45728;SDS011;31439;53.512;10.206;2022-10-01T07:07:01;6.82;;;3.88;;
45728;SDS011;31439;53.512;10.206;2022-10-01T07:09:27;7.03;;;3.88;;
45728;SDS011;31439;53.512;10.206;2022-10-01T07:11:53;5.35;;;3.75;;
45728;SDS011;31439;53.512;10.206;2022-10-01T07:14:21;7.20;;;4.35;;
45728;SDS011;31439;53.512;10.206;2022-10-01T07:16:47;6.55;;;3.78;;
45728;SDS011;31439;53.512;10.206;2022-10-01T07:19:13;6.47;;;3.90;;
45728;SDS011;31439;53.512;10.206;2022-10-01T07:21:39;5.40;;;3.70;;
45728;SDS011;31439;53.512;10.206;2022-10-01T07:24:09;6.05;;;3.65;;
45728;SDS011;31439;53.512;10.206;2022-10-01T07:26:35;6.85;;;3.65;;
45728;SDS011;31439;53.512;10.206;2022-10-01T07:29:03;5.60;;;3.90;;
45728;SDS011;31439;53.512;10.206;2022-10-01T07:31:30;6.80;;;4.20;;
45728;SDS011;31439;53.512;10.206;2022-10-01T07:33:56;8.27;;;3.80;;
45728;SDS011;31439;53.512;10.206;2022-10-01T07:36:22;5.78;;;3.90;;
45728;SDS011;31439;53.512;10.206;2022-10-01T07:38:49;6.10;;;4.13;;
45728;SDS011;31439;53.512;10.206;2022-10-01T07:41:15;5.80;;;3.97;;
45728;SDS011;31439;53.512;10.206;2022-10-01T07:43:42;6.05;;;4.10;;
45728;SDS011;31439;53.512;10.206;2022-10-01T07:46:08;7.20;;;4.30;;
45728;SDS011;31439;53.512;10.206;2022-10-01T07:48:34;7.10;;;3.95;;
45728;SDS011;31439;53.512;10.206;2022-10-01T07:51:00;5.50;;;3.67;;
45728;SDS011;31439;53.512;10.206;2022-10-01T07:53:26;5.57;;;3.40;;
45728;SDS011;31439;53.512;10.206;2022-10-01T07:55:53;6.22;;;3.42;;
45728;SDS011;31439;53.512;10.206;2022-10-01T07:58:19;4.95;;;3.70;;
45728;SDS011;31439;53.512;10.206;2022-10-01T08:00:47;9.77;;;4.47;;
45728;SDS011;31439;53.512;10.206;2022-10-01T08:03:16;6.93;;;4.18;;
45728;SDS011;31439;53.512;10.206;2022-10-01T08:05:42;6.22;;;4.60;;
45728;SDS011;31439;53.512;10.206;2022-10-01T08:08:08;7.82;;;4.35;;
45728;SDS011;31439;53.512;10.206;2022-10-01T08:10:35;6.13;;;4.13;;
45728;SDS011;31439;53.512;10.206;2022-10-01T08:13:02;6.00;;;3.80;;
45728;SDS011;31439;53.512;10.206;2022-10-01T08:15:38;5.18;;;3.78;;
45728;SDS011;31439;53.512;10.206;2022-10-01T08:18:04;5.70;;;3.78;;
45728;SDS011;31439;53.512;10.206;2022-10-01T08:20:30;5.28;;;3.55;;
45728;SDS011;31439;53.512;10.206;2022-10-01T08:23:00;7.18;;;3.78;;
45728;SDS011;31439;53.512;10.206;2022-10-01T08:25:26;5.20;;;3.75;;
45728;SDS011;31439;53.512;10.206;2022-10-01T08:27:52;6.00;;;4.00;;
45728;SDS011;31439;53.512;10.206;2022-10-01T08:30:18;7.15;;;3.67;;
45728;SDS011;31439;53.512;10.206;2022-10-01T08:32:44;6.00;;;3.72;;
45728;SDS011;31439;53.512;10.206;2022-10-01T08:35:10;6.65;;;3.42;;
45728;SDS011;31439;53.512;10.206;2022-10-01T08:37:36;8.25;;;4.82;;
45728;SDS011;31439;53.512;10.206;2022-10-01T08:40:02;4.72;;;3.33;;
45728;SDS011;31439;53.512;10.206;2022-10-01T08:45:19;5.53;;;3.28;;
45728;SDS011;31439;53.512;10.206;2022-10-01T08:47:50;5.22;;;2.70;;
45728;SDS011;31439;53.512;10.206;2022-10-01T08:50:27;4.90;;;2.75;;
45728;SDS011;31439;53.512;10.206;2022-10-01T08:52:55;4.70;;;3.00;;
45728;SDS011;31439;53.512;10.206;2022-10-01T08:55:23;4.95;;;2.70;;
45728;SDS011;31439;53.512;10.206;2022-10-01T08:57:52;6.53;;;2.67;;
45728;SDS011;31439;53.512;10.206;2022-10-01T09:00:19;4.72;;;2.60;;
45728;SDS011;31439;53.512;10.206;2022-10-01T09:02:45;5.95;;;2.95;;
45728;SDS011;31439;53.512;10.206;2022-10-01T09:05:22;5.05;;;2.70;;
45728;SDS011;31439;53.512;10.206;2022-10-01T09:13:28;4.20;;;3.20;;
45728;SDS011;31439;53.512;10.206;2022-10-01T09:20:35;3.10;;;2.60;;
45728;SDS011;31439;53.512;10.206;2022-10-01T09:23:24;3.20;;;2.60;;
45728;SDS011;31439;53.512;10.206;2022-10-01T09:25:51;3.50;;;2.40;;
45728;SDS011;31439;53.512;10.206;2022-10-01T09:28:18;2.83;;;2.08;;
45728;SDS011;31439;53.512;10.206;2022-10-01T09:33:19;3.47;;;2.47;;
45728;SDS011;31439;53.512;10.206;2022-10-01T09:35:47;3.28;;;2.70;;
45728;SDS011;31439;53.512;10.206;2022-10-01T09:40:58;4.30;;;2.78;;
45728;SDS011;31439;53.512;10.206;2022-10-01T09:43:28;3.33;;;2.70;;
45728;SDS011;31439;53.512;10.206;2022-10-01T09:45:54;4.80;;;2.70;;
45728;SDS011;31439;53.512;10.206;2022-10-01T09:51:18;3.83;;;2.88;;
45728;SDS011;31439;53.512;10.206;2022-10-01T09:56:21;3.80;;;3.10;;
45728;SDS011;31439;53.512;10.206;2022-10-01T09:58:51;4.68;;;2.88;;
45728;SDS011;31439;53.512;10.206;2022-10-01T10:01:36;3.83;;;2.92;;
45728;SDS011;31439;53.512;10.206;2022-10-01T10:04:05;4.47;;;3.03;;
45728;SDS011;31439;53.512;10.206;2022-10-01T10:06:31;3.75;;;2.42;;
45728;SDS011;31439;53.512;10.206;2022-10-01T10:08:57;5.30;;;3.00;;
45728;SDS011;31439;53.512;10.206;2022-10-01T10:11:29;3.42;;;2.97;;
45728;SDS011;31439;53.512;10.206;2022-10-01T10:13:58;4.63;;;3.20;;
45728;SDS011;31439;53.512;10.206;2022-10-01T10:16:30;5.80;;;3.20;;
45728;SDS011;31439;53.512;10.206;2022-10-01T10:19:02;4.32;;;3.60;;
45728;SDS011;31439;53.512;10.206;2022-10-01T10:21:29;5.93;;;3.55;;
45728;SDS011;31439;53.512;10.206;2022-10-01T10:24:24;4.82;;;4.00;;
45728;SDS011;31439;53.512;10.206;2022-10-01T10:29:41;8.63;;;4.15;;
45728;SDS011;31439;53.512;10.206;2022-10-01T10:32:13;5.55;;;4.28;;
45728;SDS011;31439;53.512;10.206;2022-10-01T10:34:41;6.15;;;4.38;;
45728;SDS011;31439;53.512;10.206;2022-10-01T10:37:34;6.15;;;4.60;;
45728;SDS011;31439;53.512;10.206;2022-10-01T10:40:01;7.22;;;4.40;;
45728;SDS011;31439;53.512;10.206;2022-10-01T10:42:33;5.20;;;4.43;;
45728;SDS011;31439;53.512;10.206;2022-10-01T10:45:17;9.45;;;5.10;;
45728;SDS011;31439;53.512;10.206;2022-10-01T10:47:51;11.75;;;4.82;;
45728;SDS011;31439;53.512;10.206;2022-10-01T10:50:25;7.47;;;5.22;;
45728;SDS011;31439;53.512;10.206;2022-10-01T10:52:53;9.25;;;5.15;;
45728;SDS011;31439;53.512;10.206;2022-10-01T10:58:17;8.40;;;4.88;;
45728;SDS011;31439;53.512;10.206;2022-10-01T11:00:47;8.13;;;4.82;;
45728;SDS011;31439;53.512;10.206;2022-10-01T11:03:25;6.47;;;4.35;;
45728;SDS011;31439;53.512;10.206;2022-10-01T11:06:16;7.03;;;5.13;;
45728;SDS011;31439;53.512;10.206;2022-10-01T11:09:00;5.95;;;4.53;;
45728;SDS011;31439;53.512;10.206;2022-10-01T11:11:34;10.32;;;6.15;;
45728;SDS011;31439;53.512;10.206;2022-10-01T11:21:56;7.55;;;4.60;;
45728;SDS011;31439;53.512;10.206;2022-10-01T11:39:09;8.23;;;3.70;;
45728;SDS011;31439;53.512;10.206;2022-10-01T11:41:54;8.13;;;4.20;;
45728;SDS011;31439;53.512;10.206;2022-10-01T11:47:54;7.97;;;3.25;;
45728;SDS011;31439;53.512;10.206;2022-10-01T11:53:20;8.18;;;3.17;;
45728;SDS011;31439;53.512;10.206;2022-10-01T11:59:34;9.57;;;3.20;;
45728;SDS011;31439;53.512;10.206;2022-10-01T12:02:31;6.75;;;2.67;;
45728;SDS011;31439;53.512;10.206;2022-10-01T12:05:07;6.53;;;2.42;;
45728;SDS011;31439;53.512;10.206;2022-10-01T12:14:01;8.05;;;2.90;;
45728;SDS011;31439;53.512;10.206;2022-10-01T12:16:42;7.07;;;2.30;;
45728;SDS011;31439;53.512;10.206;2022-10-01T12:24:46;8.90;;;2.33;;
45728;SDS011;31439;53.512;10.206;2022-10-01T12:27:47;6.85;;;1.80;;
45728;SDS011;31439;53.512;10.206;2022-10-01T12:30:26;9.27;;;2.22;;
45728;SDS011;31439;53.512;10.206;2022-10-01T13:01:52;7.63;;;1.83;;
45728;SDS011;31439;53.512;10.206;2022-10-01T13:07:05;4.97;;;1.80;;
45728;SDS011;31439;53.512;10.206;2022-10-01T13:09:58;10.82;;;2.58;;
45728;SDS011;31439;53.512;10.206;2022-10-01T13:15:16;5.85;;;2.10;;
45728;SDS011;31439;53.512;10.206;2022-10-01T13:17:46;6.97;;;2.33;;
45728;SDS011;31439;53.512;10.206;2022-10-01T13:20:18;8.43;;;2.50;;
45728;SDS011;31439;53.512;10.206;2022-10-01T13:22:54;7.03;;;1.95;;
45728;SDS011;31439;53.512;10.206;2022-10-01T13:28:12;6.95;;;1.80;;
45728;SDS011;31439;53.512;10.206;2022-10-01T13:30:47;9.07;;;1.95;;
45728;SDS011;31439;53.512;10.206;2022-10-01T13:33:22;3.70;;;1.77;;
45728;SDS011;31439;53.512;10.206;2022-10-01T13:35:54;5.47;;;1.90;;
45728;SDS011;31439;53.512;10.206;2022-10-01T13:38:27;6.75;;;2.08;;
45728;SDS011;31439;53.512;10.206;2022-10-01T13:41:36;10.55;;;2.38;;
45728;SDS011;31439;53.512;10.206;2022-10-01T13:46:34;4.00;;;1.23;;
45728;SDS011;31439;53.512;10.206;2022-10-01T13:49:03;4.32;;;1.20;;
45728;SDS011;31439;53.512;10.206;2022-10-01T13:51:36;5.35;;;1.20;;
45728;SDS011;31439;53.512;10.206;2022-10-01T13:54:06;6.38;;;1.33;;
45728;SDS011;31439;53.512;10.206;2022-10-01T13:56:34;4.80;;;1.33;;
45728;SDS011;31439;53.512;10.206;2022-10-01T13:59:19;5.07;;;1.10;;
45728;SDS011;31439;53.512;10.206;2022-10-01T14:01:48;3.40;;;1.52;;
45728;SDS011;31439;53.512;10.206;2022-10-01T14:04:17;5.30;;;1.35;;
45728;SDS011;31439;53.512;10.206;2022-10-01T14:06:46;4.28;;;1.40;;
45728;SDS011;31439;53.512;10.206;2022-10-01T14:09:18;6.95;;;2.00;;
45728;SDS011;31439;53.512;10.206;2022-10-01T14:11:47;7.22;;;2.22;;
45728;SDS011;31439;53.512;10.206;2022-10-01T14:14:33;10.30;;;3.10;;
45728;SDS011;31439;53.512;10.206;2022-10-01T14:17:19;4.80;;;1.30;;
45728;SDS011;31439;53.512;10.206;2022-10-01T14:19:49;4.95;;;1.88;;
45728;SDS011;31439;53.512;10.206;2022-10-01T14:22:18;5.55;;;2.05;;
45728;SDS011;31439;53.512;10.206;2022-10-01T14:27:20;6.15;;;1.52;;
45728;SDS011;31439;53.512;10.206;2022-10-01T14:29:51;3.92;;;1.30;;
45728;SDS011;31439;53.512;10.206;2022-10-01T14:37:22;4.78;;;1.30;;
45728;SDS011;31439;53.512;10.206;2022-10-01T14:40:02;6.40;;;1.58;;
45728;SDS011;31439;53.512;10.206;2022-10-01T14:42:28;2.95;;;1.00;;
45728;SDS011;31439;53.512;10.206;2022-10-01T14:44:54;3.03;;;1.20;;
45728;SDS011;31439;53.512;10.206;2022-10-01T14:47:21;7.20;;;1.20;;
45728;SDS011;31439;53.512;10.206;2022-10-01T14:49:48;4.28;;;1.35;;
45728;SDS011;31439;53.512;10.206;2022-10-01T14:52:16;3.35;;;1.15;;
45728;SDS011;31439;53.512;10.206;2022-10-01T14:54:47;4.88;;;1.35;;
45728;SDS011;31439;53.512;10.206;2022-10-01T14:57:16;6.97;;;1.55;;
45728;SDS011;31439;53.512;10.206;2022-10-01T14:59:44;5.30;;;1.48;;
45728;SDS011;31439;53.512;10.206;2022-10-01T15:02:21;4.97;;;1.35;;
45728;SDS011;31439;53.512;10.206;2022-10-01T15:04:51;3.92;;;1.13;;
45728;SDS011;31439;53.512;10.206;2022-10-01T15:07:19;4.55;;;1.50;;
45728;SDS011;31439;53.512;10.206;2022-10-01T15:09:45;5.28;;;1.30;;
45728;SDS011;31439;53.512;10.206;2022-10-01T15:12:12;6.55;;;1.20;;
45728;SDS011;31439;53.512;10.206;2022-10-01T15:14:42;3.40;;;1.25;;
45728;SDS011;31439;53.512;10.206;2022-10-01T15:17:13;4.82;;;1.25;;
45728;SDS011;31439;53.512;10.206;2022-10-01T15:19:42;3.60;;;1.17;;
45728;SDS011;31439;53.512;10.206;2022-10-01T15:22:18;2.85;;;1.00;;
45728;SDS011;31439;53.512;10.206;2022-10-01T15:24:55;5.13;;;1.30;;
45728;SDS011;31439;53.512;10.206;2022-10-01T15:27:22;4.40;;;1.30;;
45728;SDS011;31439;53.512;10.206;2022-10-01T15:29:50;3.25;;;1.08;;
45728;SDS011;31439;53.512;10.206;2022-10-01T15:32:18;4.82;;;1.20;;
45728;SDS011;31439;53.512;10.206;2022-10-01T15:34:47;4.05;;;1.40;;
45728;SDS011;31439;53.512;10.206;2022-10-01T15:37:24;3.63;;;1.52;;
45728;SDS011;31439;53.512;10.206;2022-10-01T15:39:52;6.45;;;1.48;;
45728;SDS011;31439;53.512;10.206;2022-10-01T15:42:26;4.15;;;1.23;;
45728;SDS011;31439;53.512;10.206;2022-10-01T15:52:46;7.03;;;2.00;;
45728;SDS011;31439;53.512;10.206;2022-10-01T15:55:13;5.10;;;1.83;;
45728;SDS011;31439;53.512;10.206;2022-10-01T15:57:41;10.63;;;3.22;;
45728;SDS011;31439;53.512;10.206;2022-10-01T16:02:52;8.85;;;1.70;;
45728;SDS011;31439;53.512;10.206;2022-10-01T16:05:36;5.32;;;1.63;;
45728;SDS011;31439;53.512;10.206;2022-10-01T16:08:02;5.63;;;1.42;;
45728;SDS011;31439;53.512;10.206;2022-10-01T16:10:35;5.75;;;1.90;;
45728;SDS011;31439;53.512;10.206;2022-10-01T16:18:41;4.13;;;1.58;;
45728;SDS011;31439;53.512;10.206;2022-10-01T16:21:08;9.98;;;2.13;;
45728;SDS011;31439;53.512;10.206;2022-10-01T16:23:35;4.57;;;1.88;;
45728;SDS011;31439;53.512;10.206;2022-10-01T16:26:05;5.90;;;1.80;;
45728;SDS011;31439;53.512;10.206;2022-10-01T16:28:34;5.47;;;1.77;;
45728;SDS011;31439;53.512;10.206;2022-10-01T16:31:00;7.40;;;1.80;;
45728;SDS011;31439;53.512;10.206;2022-10-01T16:36:06;6.82;;;2.13;;
45728;SDS011;31439;53.512;10.206;2022-10-01T16:38:33;5.22;;;1.70;;
45728;SDS011;31439;53.512;10.206;2022-10-01T16:40:58;6.63;;;1.60;;
45728;SDS011;31439;53.512;10.206;2022-10-01T16:43:28;7.00;;;1.90;;
45728;SDS011;31439;53.512;10.206;2022-10-01T16:45:55;4.97;;;1.60;;
45728;SDS011;31439;53.512;10.206;2022-10-01T16:48:22;8.50;;;2.00;;
45728;SDS011;31439;53.512;10.206;2022-10-01T16:50:49;6.57;;;1.90;;
45728;SDS011;31439;53.512;10.206;2022-10-01T16:53:17;4.85;;;1.70;;
45728;SDS011;31439;53.512;10.206;2022-10-01T16:55:48;8.10;;;3.38;;
45728;SDS011;31439;53.512;10.206;2022-10-01T16:58:14;7.82;;;2.40;;
45728;SDS011;31439;53.512;10.206;2022-10-01T17:00:41;6.63;;;2.00;;
45728;SDS011;31439;53.512;10.206;2022-10-01T17:03:13;10.35;;;2.10;;
45728;SDS011;31439;53.512;10.206;2022-10-01T17:05:39;10.60;;;2.80;;
45728;SDS011;31439;53.512;10.206;2022-10-01T17:08:05;10.35;;;2.70;;
45728;SDS011;31439;53.512;10.206;2022-10-01T17:10:47;10.50;;;3.10;;
45728;SDS011;31439;53.512;10.206;2022-10-01T17:13:17;6.60;;;1.92;;
45728;SDS011;31439;53.512;10.206;2022-10-01T17:15:43;6.90;;;2.10;;
45728;SDS011;31439;53.512;10.206;2022-10-01T17:18:11;9.02;;;2.25;;
45728;SDS011;31439;53.512;10.206;2022-10-01T17:20:37;8.38;;;2.47;;
45728;SDS011;31439;53.512;10.206;2022-10-01T17:23:03;9.85;;;1.90;;
45728;SDS011;31439;53.512;10.206;2022-10-01T17:25:31;12.90;;;2.38;;
45728;SDS011;31439;53.512;10.206;2022-10-01T17:27:58;5.63;;;1.73;;
45728;SDS011;31439;53.512;10.206;2022-10-01T17:30:25;8.82;;;2.33;;
45728;SDS011;31439;53.512;10.206;2022-10-01T17:32:53;7.75;;;1.92;;